createdAt,value
2018-04-28T00:00:13.471Z,83.80
2018-04-28T00:02:40.988Z,83.80
2018-04-28T00:05:09.490Z,85.20
2018-04-28T00:07:37.471Z,84.70
2018-04-28T00:10:04.957Z,85.00
2018-04-28T00:12:32.581Z,84.30
2018-04-28T00:15:01.881Z,84.90
2018-04-28T00:17:34.836Z,84.80
2018-04-28T00:20:02.728Z,84.90
2018-04-28T00:22:35.509Z,85.10
2018-04-28T00:25:07.673Z,85.00
2018-04-28T00:27:36.788Z,86.30
2018-04-28T00:30:08.258Z,86.00
2018-04-28T00:32:35.905Z,87.10
2018-04-28T00:35:03.415Z,86.50
2018-04-28T00:37:32.479Z,87.20
2018-04-28T00:40:02.861Z,87.30
2018-04-28T00:42:42.476Z,88.70
2018-04-28T00:45:12.013Z,89.10
2018-04-28T00:47:42.772Z,89.00
2018-04-28T00:50:15.156Z,89.60
2018-04-28T00:52:42.640Z,89.80
2018-04-28T00:55:29.076Z,89.90
2018-04-28T00:58:08.623Z,90.00
2018-04-28T01:00:49.730Z,90.00
2018-04-28T01:03:18.197Z,90.40
2018-04-28T01:05:46.607Z,90.60
2018-04-28T01:08:14.376Z,90.40
2018-04-28T01:11:02.760Z,90.50
2018-04-28T01:13:47.007Z,90.40
2018-04-28T01:16:15.892Z,90.30
2018-04-28T01:18:51.473Z,90.70
2018-04-28T01:21:20.619Z,90.70
2018-04-28T01:23:49.127Z,91.10
2018-04-28T01:29:32.370Z,91.40
2018-04-28T01:32:06.589Z,91.20
2018-04-28T01:34:46.047Z,91.10
2018-04-28T01:40:13.863Z,91.80
2018-04-28T01:42:53.141Z,92.10
2018-04-28T01:45:25.290Z,92.40
2018-04-28T01:51:14.213Z,92.20
2018-04-28T01:53:43.799Z,92.20
2018-04-28T01:56:15.980Z,92.70
2018-04-28T01:59:05.216Z,92.70
2018-04-28T02:01:35.050Z,93.10
2018-04-28T02:04:07.423Z,93.10
2018-04-28T02:07:03.772Z,93.10
2018-04-28T02:09:31.406Z,93.10
2018-04-28T02:12:09.111Z,92.70
2018-04-28T02:14:59.133Z,93.00
2018-04-28T02:17:27.498Z,92.90
2018-04-28T02:20:00.050Z,92.90
2018-04-28T02:22:33.059Z,93.20
2018-04-28T02:25:03.590Z,93.60
2018-04-28T02:27:41.271Z,93.60
2018-04-28T02:30:09.142Z,93.70
2018-04-28T02:32:37.573Z,93.80
2018-04-28T02:35:08.769Z,93.70
2018-04-28T02:37:41.149Z,94.00
2018-04-28T02:40:16.375Z,94.00
2018-04-28T02:42:46.686Z,94.20
2018-04-28T02:48:17.415Z,94.90
2018-04-28T02:50:46.464Z,94.90
2018-04-28T02:53:17.925Z,94.20
2018-04-28T02:55:58.142Z,94.10
2018-04-28T02:58:31.652Z,94.00
2018-04-28T03:01:06.437Z,94.20
2018-04-28T03:03:39.158Z,94.30
2018-04-28T03:06:07.042Z,94.50
2018-04-28T03:08:41.437Z,94.60
2018-04-28T03:11:09.718Z,94.80
2018-04-28T03:13:41.384Z,94.70
2018-04-28T03:16:24.553Z,94.70
2018-04-28T03:18:52.367Z,94.30
2018-04-28T03:21:20.036Z,94.20
2018-04-28T03:23:50.963Z,94.40
2018-04-28T03:26:25.458Z,94.40
2018-04-28T03:29:03.685Z,94.80
2018-04-28T03:31:34.636Z,94.90
2018-04-28T03:37:06.123Z,95.10
2018-04-28T03:39:40.324Z,94.80
2018-04-28T03:42:13.773Z,94.80
2018-04-28T03:44:43.948Z,95.20
2018-04-28T03:47:16.867Z,94.80
2018-04-28T03:49:45.389Z,94.80
2018-04-28T03:52:22.043Z,94.90
2018-04-28T03:54:50.899Z,95.10
2018-04-28T03:57:39.602Z,95.00
2018-04-28T04:00:18.980Z,94.70
2018-04-28T04:06:11.636Z,94.50
2018-04-28T04:08:40.104Z,94.40
2018-04-28T04:11:21.714Z,95.00
2018-04-28T04:14:01.066Z,95.20
2018-04-28T04:19:53.207Z,95.30
2018-04-28T04:25:42.901Z,95.60
2018-04-28T04:28:23.306Z,95.50
2018-04-28T04:30:51.655Z,95.80
2018-04-28T04:36:37.546Z,95.90
2018-04-28T04:39:10.871Z,95.80
2018-04-28T04:41:50.889Z,95.80
2018-04-28T04:44:29.993Z,95.40
2018-04-28T04:47:04.043Z,95.30
2018-04-28T04:49:43.466Z,95.40
2018-04-28T04:55:18.320Z,95.40
2018-04-28T04:58:08.418Z,95.40
2018-04-28T05:00:47.772Z,95.40
2018-04-28T05:03:39.117Z,94.90
2018-04-28T05:09:28.842Z,93.60
2018-04-28T05:12:09.405Z,93.50
2018-04-28T05:14:41.397Z,93.60
2018-04-28T05:17:09.544Z,93.30
2018-04-28T05:19:59.731Z,93.20
2018-04-28T05:22:53.840Z,92.20
2018-04-28T05:25:33.377Z,92.20
2018-04-28T05:28:04.113Z,91.40
2018-04-28T05:33:35.062Z,91.30
2018-04-28T05:36:08.237Z,91.10
2018-04-28T05:38:48.508Z,90.70
2018-04-28T05:41:27.951Z,90.30
2018-04-28T05:44:17.712Z,89.90
2018-04-28T05:47:10.004Z,89.80
2018-04-28T05:49:46.458Z,88.60
2018-04-28T05:52:28.826Z,88.00
2018-04-28T05:55:13.585Z,86.60
2018-04-28T05:57:48.839Z,84.80
2018-04-28T06:00:28.045Z,84.70
2018-04-28T06:03:07.951Z,83.00
2018-04-28T06:08:52.724Z,74.00
2018-04-28T06:11:25.450Z,67.10
2018-04-28T06:14:00.220Z,51.10
2018-04-28T06:16:38.336Z,51.00
2018-04-28T06:22:08.192Z,43.30
2018-04-28T06:24:36.712Z,41.20
2018-04-28T06:27:04.434Z,40.70
2018-04-28T06:29:31.957Z,40.10
2018-04-28T06:31:59.753Z,41.30
2018-04-28T06:34:27.361Z,39.30
2018-04-28T06:36:59.859Z,40.80
2018-04-28T06:39:29.083Z,37.70
2018-04-28T06:41:56.593Z,39.60
2018-04-28T06:44:24.507Z,35.90
2018-04-28T06:46:52.825Z,37.80
2018-04-28T06:49:20.314Z,35.40
2018-04-28T06:51:47.850Z,34.50
2018-04-28T06:54:16.412Z,32.10
2018-04-28T06:56:43.976Z,32.00
2018-04-28T06:59:11.755Z,34.40
2018-04-28T07:01:39.270Z,28.80
2018-04-28T07:04:06.769Z,29.70
2018-04-28T07:06:35.369Z,29.10
2018-04-28T07:09:03.435Z,29.10
2018-04-28T07:11:30.912Z,25.70
2018-04-28T07:13:58.441Z,25.00
2018-04-28T07:16:26.437Z,24.70
2018-04-28T07:18:53.919Z,24.40
2018-04-28T07:21:24.949Z,24.20
2018-04-28T07:23:52.503Z,25.30
2018-04-28T07:26:20.829Z,23.90
2018-04-28T07:28:48.453Z,25.20
2018-04-28T07:31:15.948Z,25.10
2018-04-28T07:33:43.493Z,24.40
2018-04-28T07:36:11.600Z,25.70
2018-04-28T07:38:39.912Z,23.80
2018-04-28T07:41:07.865Z,23.70
2018-04-28T07:43:36.625Z,24.00
2018-04-28T07:46:04.316Z,22.70
2018-04-28T07:48:31.981Z,22.20
2018-04-28T07:50:59.492Z,22.50
2018-04-28T07:53:27.676Z,22.60
2018-04-28T07:55:56.156Z,23.40
2018-04-28T07:58:24.786Z,23.80
2018-04-28T08:00:52.831Z,23.80
2018-04-28T08:03:20.532Z,24.60
2018-04-28T08:05:48.277Z,25.40
2018-04-28T08:08:15.957Z,25.00
2018-04-28T08:10:43.462Z,25.70
2018-04-28T08:13:11.153Z,26.80
2018-04-28T08:15:38.899Z,24.70
2018-04-28T08:18:07.149Z,27.50
2018-04-28T08:20:35.683Z,27.90
2018-04-28T08:23:03.723Z,27.50
2018-04-28T08:25:31.220Z,26.10
2018-04-28T08:27:58.826Z,27.10
2018-04-28T08:30:26.332Z,27.30
2018-04-28T08:32:53.912Z,26.90
2018-04-28T08:35:21.449Z,26.20
2018-04-28T08:37:50.049Z,25.70
2018-04-28T08:40:18.560Z,23.80
2018-04-28T08:42:46.117Z,24.80
2018-04-28T08:45:14.333Z,26.30
2018-04-28T08:47:41.854Z,26.00
2018-04-28T08:50:09.353Z,25.50
2018-04-28T08:52:37.089Z,26.50
2018-04-28T08:55:05.352Z,24.70
2018-04-28T08:57:33.570Z,24.70
2018-04-28T09:00:13.067Z,23.20
2018-04-28T09:02:41.385Z,24.30
2018-04-28T09:05:08.937Z,24.50
2018-04-28T09:07:39.644Z,24.90
2018-04-28T09:10:07.382Z,23.50
2018-04-28T09:12:35.280Z,24.60
2018-04-28T09:15:03.380Z,24.50
2018-04-28T09:17:30.925Z,25.20
2018-04-28T09:19:58.560Z,24.10
2018-04-28T09:22:26.960Z,23.50
2018-04-28T09:24:54.738Z,24.10
2018-04-28T09:27:22.381Z,24.90
2018-04-28T09:29:50.878Z,24.80
2018-04-28T09:32:18.449Z,25.20
2018-04-28T09:34:45.968Z,27.10
2018-04-28T09:37:14.260Z,25.70
2018-04-28T09:39:43.048Z,25.10
2018-04-28T09:42:10.578Z,25.10
2018-04-28T09:44:38.086Z,25.40
2018-04-28T09:47:05.894Z,26.60
2018-04-28T09:49:33.926Z,27.20
2018-04-28T09:52:01.860Z,26.10
2018-04-28T09:54:29.388Z,26.50
2018-04-28T09:56:57.028Z,26.80
2018-04-28T09:59:24.803Z,26.40
2018-04-28T10:01:59.077Z,24.30
2018-04-28T10:04:26.613Z,23.70
2018-04-28T10:06:54.185Z,23.60
2018-04-28T10:09:22.765Z,22.90
2018-04-28T10:11:51.063Z,23.60
2018-04-28T10:14:19.081Z,23.60
2018-04-28T10:16:46.594Z,21.30
2018-04-28T10:19:14.141Z,21.90
2018-04-28T10:21:41.702Z,21.40
2018-04-28T10:24:09.844Z,23.60
2018-04-28T10:26:37.402Z,22.30
2018-04-28T10:29:05.365Z,22.60
2018-04-28T10:31:35.186Z,24.30
2018-04-28T10:34:02.724Z,24.20
2018-04-28T10:36:30.220Z,23.50
2018-04-28T10:39:01.400Z,24.30
2018-04-28T10:41:28.937Z,24.30
2018-04-28T13:46:59.540Z,31.30
2018-04-28T13:49:27.789Z,33.70
2018-04-28T13:51:55.290Z,33.70
2018-04-28T13:54:22.806Z,33.60
2018-04-28T13:56:50.298Z,32.40
2018-04-28T13:59:18.263Z,30.70
2018-04-28T14:01:45.758Z,31.00
2018-04-28T14:04:13.372Z,31.20
2018-04-28T14:06:42.771Z,31.20
2018-04-28T14:09:11.030Z,31.60
2018-04-28T14:11:38.526Z,31.60
2018-04-28T14:14:06.029Z,30.10
2018-04-28T14:16:33.681Z,31.80
2018-04-28T14:19:02.455Z,31.00
2018-04-28T14:21:29.946Z,31.40
2018-04-28T14:23:57.438Z,29.90
2018-04-28T14:26:26.130Z,30.90
2018-04-28T14:28:53.745Z,30.90
2018-04-28T14:31:21.377Z,31.60
2018-04-28T14:33:49.540Z,32.10
2018-04-28T14:36:17.020Z,31.50
2018-04-28T14:38:44.624Z,31.60
2018-04-28T14:41:13.039Z,33.70
2018-04-28T14:43:41.514Z,33.70
2018-04-28T14:46:09.090Z,35.00
2018-04-28T14:48:38.079Z,33.90
2018-04-28T14:51:05.593Z,33.90
2018-04-28T14:53:33.934Z,33.40
2018-04-28T14:56:01.851Z,33.40
2018-04-28T14:58:29.537Z,34.70
2018-04-28T15:00:57.093Z,34.20
2018-04-28T15:03:24.588Z,35.20
2018-04-28T15:05:52.904Z,35.90
2018-04-28T15:08:20.425Z,37.30
2018-04-28T15:10:47.934Z,36.30
2018-04-28T15:13:16.613Z,36.60
2018-04-28T15:15:44.150Z,38.30
2018-04-28T15:18:11.647Z,37.90
2018-04-28T15:20:39.207Z,39.00
2018-04-28T15:23:06.837Z,39.40
2018-04-28T15:25:34.337Z,38.60
2018-04-28T15:28:02.060Z,39.20
2018-04-28T15:30:29.545Z,38.30
2018-04-28T15:32:57.036Z,37.70
2018-04-28T15:35:24.854Z,39.10
2018-04-28T15:37:52.653Z,38.90
2018-04-28T15:40:21.200Z,39.90
2018-04-28T15:42:48.696Z,38.70
2018-04-28T15:45:17.133Z,38.20
2018-04-28T15:47:45.721Z,35.70
2018-04-28T15:50:13.248Z,35.60
2018-04-28T15:52:40.758Z,38.30
2018-04-28T15:55:08.391Z,36.90
2018-04-28T15:57:36.292Z,35.60
2018-04-28T16:00:04.302Z,35.00
2018-04-28T16:02:31.911Z,35.40
2018-04-28T16:04:59.748Z,37.20
2018-04-28T16:07:27.564Z,36.50
2018-04-28T16:09:55.069Z,35.50
2018-04-28T16:12:23.321Z,38.40
2018-04-28T16:14:50.848Z,38.40
2018-04-28T16:17:19.102Z,38.30
2018-04-28T16:19:46.980Z,37.00
2018-04-28T16:22:14.474Z,38.00
2018-04-28T16:24:42.077Z,37.20
2018-04-28T16:27:09.652Z,37.80
2018-04-28T16:29:37.735Z,37.70
2018-04-28T16:32:08.791Z,39.10
2018-04-28T16:34:37.362Z,38.30
2018-04-28T16:37:04.985Z,38.40
2018-04-28T16:39:33.905Z,38.40
2018-04-28T16:42:01.543Z,38.40
2018-04-28T16:44:30.368Z,38.30
2018-04-28T16:46:59.485Z,38.40
2018-04-28T16:52:45.450Z,38.60
2018-04-28T16:55:13.795Z,39.40
2018-04-28T16:57:41.423Z,39.10
2018-04-28T17:00:09.730Z,40.00
2018-04-28T17:02:37.528Z,39.50
2018-04-28T17:05:05.014Z,39.20
2018-04-28T17:07:32.695Z,41.10
2018-04-28T17:10:00.184Z,40.30
2018-04-28T17:12:28.452Z,41.60
2018-04-28T17:14:56.725Z,41.80
2018-04-28T17:17:37.215Z,42.50
2018-04-28T17:20:04.724Z,42.40
2018-04-28T17:22:32.231Z,42.00
2018-04-28T17:24:59.790Z,42.80
2018-04-28T17:27:27.251Z,42.70
2018-04-28T17:29:55.530Z,43.10
2018-04-28T17:32:23.482Z,43.80
2018-04-28T17:34:51.745Z,44.20
2018-04-28T17:37:20.012Z,44.30
2018-04-28T17:46:24.642Z,45.10
2018-04-28T17:48:52.134Z,44.80
2018-04-28T17:51:19.754Z,45.30
2018-04-28T17:53:47.905Z,46.00
2018-04-28T17:56:16.449Z,46.60
2018-04-28T17:58:44.144Z,46.60
2018-04-28T18:01:12.030Z,47.50
2018-04-28T18:03:39.598Z,47.40
2018-04-28T18:06:07.199Z,47.90
2018-04-28T18:08:35.334Z,48.40
2018-04-28T18:11:02.837Z,48.60
2018-04-28T18:13:30.541Z,49.10
2018-04-28T18:15:58.062Z,49.00
2018-04-28T18:18:25.839Z,49.20
2018-04-28T18:20:53.565Z,49.40
2018-04-28T18:23:21.143Z,49.80
2018-04-28T18:25:50.377Z,50.10
2018-04-28T18:28:18.057Z,50.10
2018-04-28T18:30:45.551Z,50.50
2018-04-28T18:33:13.181Z,51.70
2018-04-28T18:35:41.033Z,51.60
2018-04-28T18:38:08.853Z,51.70
2018-04-28T18:40:36.620Z,52.20
2018-04-28T18:43:06.714Z,53.10
2018-04-28T18:45:34.621Z,52.20
2018-04-28T18:48:02.175Z,52.70
2018-04-28T18:50:34.497Z,53.00
2018-04-28T18:53:02.081Z,53.20
2018-04-28T18:55:29.679Z,54.00
2018-04-28T18:57:57.516Z,53.90
2018-04-28T19:00:40.108Z,54.70
2018-04-28T19:03:08.664Z,54.70
2018-04-28T19:05:36.839Z,54.60
2018-04-28T19:08:08.183Z,55.40
2018-04-28T19:10:56.901Z,54.90
2018-04-28T19:13:24.893Z,55.50
2018-04-28T19:15:53.404Z,55.80
2018-04-28T19:18:20.899Z,55.90
2018-04-28T19:20:48.397Z,57.60
2018-04-28T19:23:16.010Z,56.80
2018-04-28T19:25:43.725Z,57.00
2018-04-28T19:28:11.269Z,56.50
2018-04-28T19:30:38.770Z,57.70
2018-04-28T19:33:13.641Z,56.30
2018-04-28T19:35:41.757Z,56.90
2018-04-28T19:38:09.337Z,57.20
2018-04-28T19:40:38.199Z,56.90
2018-04-28T19:43:05.879Z,57.00
2018-04-28T19:45:33.432Z,56.50
2018-04-28T19:48:01.524Z,56.20
2018-04-28T19:50:29.259Z,56.10
2018-04-28T19:52:57.249Z,56.10
2018-04-28T19:55:24.820Z,56.10
2018-04-28T19:58:04.399Z,56.10
2018-04-28T20:00:32.663Z,56.60
2018-04-28T20:03:00.914Z,56.80
2018-04-28T20:05:29.681Z,56.80
2018-04-28T20:07:57.190Z,56.80
2018-04-28T20:10:25.835Z,56.60
2018-04-28T20:12:53.798Z,56.60
2018-04-28T20:15:21.574Z,56.60
2018-04-28T20:17:49.099Z,56.80
2018-04-28T20:20:16.744Z,57.00
2018-04-28T20:22:56.714Z,57.00
2018-04-28T20:25:24.188Z,57.00
2018-04-28T20:27:52.329Z,57.00
2018-04-28T20:30:19.835Z,56.90
2018-04-28T20:32:47.462Z,57.30
2018-04-28T20:35:15.411Z,57.30
2018-04-28T20:37:43.246Z,57.40
2018-04-28T20:40:10.761Z,58.30
2018-04-28T20:42:38.401Z,57.40
2018-04-28T20:45:06.073Z,57.80
2018-04-28T20:47:33.635Z,58.10
2018-04-28T20:50:01.135Z,59.50
2018-04-28T20:52:30.109Z,59.10
2018-04-28T20:54:57.614Z,59.10
2018-04-28T20:57:26.667Z,59.40
2018-04-28T20:59:54.522Z,59.40
2018-04-28T21:02:22.029Z,59.70
2018-04-28T21:04:49.559Z,59.80
2018-04-28T21:07:17.586Z,60.40
2018-04-28T21:09:45.257Z,61.20
2018-04-28T21:12:12.768Z,62.70
2018-04-28T21:14:40.863Z,62.80
2018-04-28T21:17:08.368Z,63.80
2018-04-28T21:19:35.879Z,64.30
2018-04-28T21:22:03.398Z,64.80
2018-04-28T21:24:31.956Z,65.50
2018-04-28T21:26:59.462Z,66.00
2018-04-28T21:29:27.856Z,67.10
2018-04-28T21:31:55.376Z,67.10
2018-04-28T21:34:23.511Z,67.10
2018-04-28T21:36:51.204Z,67.20
2018-04-28T21:39:18.746Z,67.80
2018-04-28T21:41:46.258Z,67.60
2018-04-28T21:44:14.522Z,67.20
2018-04-28T21:46:42.942Z,66.90
2018-04-28T21:49:10.441Z,66.90
2018-04-28T21:51:38.338Z,67.30
2018-04-28T21:54:06.740Z,67.90
2018-04-28T21:56:34.262Z,67.90
2018-04-28T21:59:01.908Z,67.60
2018-04-28T22:01:29.704Z,68.10
2018-04-28T22:03:57.208Z,70.20
2018-04-28T22:06:25.656Z,70.30
2018-04-28T22:08:53.485Z,70.30
2018-04-28T22:11:21.215Z,71.00
2018-04-28T22:13:48.739Z,71.20
2018-04-28T22:16:16.527Z,70.50
2018-04-28T22:18:44.113Z,70.70
2018-04-28T22:21:11.843Z,70.70
2018-04-28T22:23:39.910Z,70.80
2018-04-28T22:26:07.316Z,71.70
2018-04-28T22:28:36.381Z,71.70
2018-04-28T22:31:03.979Z,71.50
2018-04-28T22:33:32.061Z,72.20
2018-04-28T22:35:59.701Z,72.00
2018-04-28T22:38:27.237Z,72.10
2018-04-28T22:40:54.883Z,72.10
2018-04-28T22:43:22.418Z,72.50
2018-04-28T22:45:49.913Z,72.20
2018-04-28T22:48:17.471Z,72.00
2018-04-28T22:50:45.623Z,72.40
2018-04-28T22:53:13.149Z,72.50
2018-04-28T22:55:40.656Z,72.80
2018-04-28T22:58:09.629Z,72.30
2018-04-28T23:00:42.964Z,73.00
2018-04-28T23:03:10.796Z,73.40
2018-04-28T23:05:38.554Z,73.90
2018-04-28T23:08:06.805Z,74.70
2018-04-28T23:10:34.844Z,75.30
2018-04-28T23:13:02.338Z,74.80
2018-04-28T23:15:30.454Z,76.00
2018-04-28T23:17:58.263Z,76.10
2018-04-28T23:20:26.597Z,76.40
2018-04-28T23:22:54.335Z,76.20
2018-04-28T23:25:22.388Z,76.60
2018-04-28T23:27:49.889Z,77.30
2018-04-28T23:30:17.461Z,77.20
2018-04-28T23:32:44.983Z,76.20
2018-04-28T23:35:12.565Z,77.20
2018-04-28T23:37:40.066Z,77.30
2018-04-28T23:40:08.327Z,77.90
2018-04-28T23:42:36.724Z,77.80
2018-04-28T23:45:04.680Z,78.00
2018-04-28T23:47:32.170Z,78.60
2018-04-28T23:49:59.840Z,79.20
2018-04-28T23:52:27.516Z,78.90
2018-04-28T23:54:55.005Z,79.50
2018-04-28T23:57:22.504Z,79.40
2018-04-28T23:59:50.901Z,79.40
